createdAt,value
2024-02-14T00:00:33.852Z,98697.85
2024-02-14T00:03:00.575Z,98700.12
2024-02-14T00:05:27.395Z,98701.72
2024-02-14T00:07:54.313Z,98701.99
2024-02-14T00:10:21.666Z,98698.89
2024-02-14T00:12:48.411Z,98700.75
2024-02-14T00:15:15.254Z,98694.67
2024-02-14T00:17:42.118Z,98696.82
2024-02-14T00:20:10.045Z,98698.71
2024-02-14T00:22:36.737Z,98702.63
2024-02-14T00:25:03.886Z,98711.49
2024-02-14T00:27:30.637Z,98716.48
2024-02-14T00:29:57.347Z,98721.38
2024-02-14T00:32:24.260Z,98721.08
2024-02-14T00:34:51.590Z,98723.33
2024-02-14T00:37:20.365Z,98721.31
2024-02-14T00:39:47.049Z,98722.19
2024-02-14T00:42:13.904Z,98726.14
2024-02-14T00:44:40.599Z,98724.61
2024-02-14T00:47:07.663Z,98723.51
2024-02-14T00:49:37.736Z,98719.36
2024-02-14T00:52:04.904Z,98727.23
2024-02-14T00:54:31.876Z,98727.23
2024-02-14T00:56:58.764Z,98722.98
2024-02-14T00:59:25.694Z,98724.36
2024-02-14T01:01:52.402Z,98725.70
2024-02-14T01:04:19.144Z,98724.99
2024-02-14T01:06:46.293Z,98726.17
2024-02-14T01:09:13.176Z,98721.91
2024-02-14T01:11:40.018Z,98724.63
2024-02-14T01:14:06.844Z,98728.04
2024-02-14T01:16:33.588Z,98726.18
2024-02-14T01:19:00.541Z,98726.14
2024-02-14T01:21:27.397Z,98726.15
2024-02-14T01:23:54.075Z,98730.30
2024-02-14T01:26:20.785Z,98726.52
2024-02-14T01:28:47.427Z,98728.95
2024-02-14T01:31:14.175Z,98727.70
2024-02-14T01:33:41.044Z,98727.41
2024-02-14T01:36:07.919Z,98724.92
2024-02-14T01:38:34.653Z,98727.14
2024-02-14T01:41:01.397Z,98731.11
2024-02-14T01:43:28.161Z,98731.96
2024-02-14T01:45:55.086Z,98730.98
2024-02-14T01:48:21.970Z,98732.02
2024-02-14T01:50:49.148Z,98728.58
2024-02-14T01:53:16.091Z,98728.27
2024-02-14T01:55:42.787Z,98733.89
2024-02-14T01:58:09.960Z,98735.80
2024-02-14T02:00:37.362Z,98731.68
2024-02-14T02:03:04.740Z,98730.32
2024-02-14T02:05:31.799Z,98731.66
2024-02-14T02:07:59.093Z,98729.36
2024-02-14T02:10:26.117Z,98731.52
2024-02-14T02:12:59.453Z,98731.48
2024-02-14T02:15:26.207Z,98733.11
2024-02-14T02:17:53.088Z,98731.08
2024-02-14T02:20:20.467Z,98733.77
2024-02-14T02:22:48.513Z,98733.27
2024-02-14T02:25:15.765Z,98734.41
2024-02-14T02:27:42.518Z,98734.02
2024-02-14T02:30:09.577Z,98731.55
2024-02-14T02:32:36.438Z,98738.13
2024-02-14T02:35:03.411Z,98737.44
2024-02-14T02:37:30.237Z,98736.58
2024-02-14T02:39:59.648Z,98738.83
2024-02-14T02:42:26.678Z,98739.88
2024-02-14T02:44:53.598Z,98741.08
2024-02-14T02:47:20.389Z,98746.28
2024-02-14T02:49:47.757Z,98746.58
2024-02-14T02:52:15.059Z,98750.05
2024-02-14T02:54:42.230Z,98747.67
2024-02-14T02:57:09.442Z,98749.89
2024-02-14T02:59:37.342Z,98753.33
2024-02-14T03:02:04.966Z,98754.60
2024-02-14T03:04:45.340Z,98756.18
2024-02-14T03:07:16.610Z,98755.52
2024-02-14T03:09:43.682Z,98758.88
2024-02-14T03:12:11.353Z,98757.20
2024-02-14T03:14:38.721Z,98759.57
2024-02-14T03:17:06.017Z,98762.36
2024-02-14T03:19:33.014Z,98762.58
2024-02-14T03:21:59.816Z,98767.77
2024-02-14T03:24:26.570Z,98766.56
2024-02-14T03:26:53.735Z,98770.05
2024-02-14T03:29:21.485Z,98768.70
2024-02-14T03:31:49.039Z,98773.86
2024-02-14T03:34:16.307Z,98772.59
2024-02-14T03:36:43.255Z,98774.56
2024-02-14T03:39:10.306Z,98777.48
2024-02-14T03:41:37.184Z,98779.70
2024-02-14T03:44:04.144Z,98777.20
2024-02-14T03:46:31.180Z,98775.81
2024-02-14T03:48:58.105Z,98775.69
2024-02-14T03:51:25.484Z,98775.73
2024-02-14T03:53:52.663Z,98777.92
2024-02-14T03:56:19.391Z,98780.83
2024-02-14T03:58:46.147Z,98781.80
2024-02-14T04:01:13.323Z,98779.50
2024-02-14T04:03:40.790Z,98788.66
2024-02-14T04:06:07.631Z,98788.70
2024-02-14T04:08:34.657Z,98791.62
2024-02-14T04:11:01.798Z,98790.48
2024-02-14T04:13:28.691Z,98792.80
2024-02-14T04:15:55.394Z,98790.98
2024-02-14T04:18:22.303Z,98791.05
2024-02-14T04:20:49.272Z,98792.65
2024-02-14T04:23:16.164Z,98798.52
2024-02-14T04:25:43.124Z,98794.95
2024-02-14T04:28:10.063Z,98800.81
2024-02-14T04:30:37.305Z,98801.58
2024-02-14T04:33:04.323Z,98801.03
2024-02-14T04:35:31.580Z,98802.95
2024-02-14T04:37:58.600Z,98800.73
2024-02-14T04:40:25.438Z,98802.86
2024-02-14T04:42:52.184Z,98803.21
2024-02-14T04:45:19.739Z,98805.48
2024-02-14T04:47:46.673Z,98804.66
2024-02-14T04:50:13.533Z,98806.42
2024-02-14T04:52:40.289Z,98809.54
2024-02-14T04:55:07.783Z,98808.84
2024-02-14T04:57:34.683Z,98809.48
2024-02-14T05:00:01.509Z,98809.29
2024-02-14T05:02:28.299Z,98810.20
2024-02-14T05:04:55.244Z,98806.95
2024-02-14T05:07:21.986Z,98815.91
2024-02-14T05:09:48.745Z,98814.78
2024-02-14T05:12:15.520Z,98818.80
2024-02-14T05:14:42.556Z,98819.69
2024-02-14T05:17:09.438Z,98819.48
2024-02-14T05:19:36.387Z,98819.52
2024-02-14T05:22:03.391Z,98819.00
2024-02-14T05:24:30.393Z,98817.60
2024-02-14T05:26:57.234Z,98818.93
2024-02-14T05:29:23.929Z,98820.34
2024-02-14T05:31:50.685Z,98819.45
2024-02-14T05:34:17.846Z,98822.05
2024-02-14T05:36:44.675Z,98823.77
2024-02-14T05:39:11.839Z,98823.94
2024-02-14T05:41:39.072Z,98825.54
2024-02-14T05:44:05.850Z,98833.41
2024-02-14T05:46:32.790Z,98830.28
2024-02-14T05:48:59.601Z,98835.49
2024-02-14T05:51:26.739Z,98834.34
2024-02-14T05:53:53.525Z,98835.92
2024-02-14T05:56:20.385Z,98833.89
2024-02-14T05:58:47.134Z,98836.80
2024-02-14T06:01:13.902Z,98839.98
2024-02-14T06:03:43.234Z,98844.27
2024-02-14T06:06:10.306Z,98846.73
2024-02-14T06:08:37.022Z,98853.27
2024-02-14T06:11:03.927Z,98855.42
2024-02-14T06:13:30.767Z,98857.15
2024-02-14T06:15:57.413Z,98855.76
2024-02-14T06:18:24.431Z,98862.75
2024-02-14T06:20:51.242Z,98859.05
2024-02-14T06:23:17.903Z,98858.02
2024-02-14T06:25:44.585Z,98856.77
2024-02-14T06:28:11.351Z,98858.45
2024-02-14T06:30:38.085Z,98859.44
2024-02-14T06:33:05.263Z,98857.48
2024-02-14T06:35:32.591Z,98857.27
2024-02-14T06:38:04.203Z,98860.73
2024-02-14T06:40:32.340Z,98859.02
2024-02-14T06:42:59.395Z,98856.44
2024-02-14T06:45:27.362Z,98857.04
2024-02-14T06:47:54.174Z,98856.69
2024-02-14T06:50:21.245Z,98863.08
2024-02-14T06:52:47.880Z,98866.19
2024-02-14T06:55:14.739Z,98860.78
2024-02-14T06:57:41.499Z,98858.67
2024-02-14T07:00:10.149Z,98862.95
2024-02-14T07:02:37.170Z,98864.56
2024-02-14T07:05:04.076Z,98864.94
2024-02-14T07:07:31.034Z,98861.48
2024-02-14T07:09:57.784Z,98860.90
2024-02-14T07:12:24.480Z,98866.15
2024-02-14T07:14:51.337Z,98866.98
2024-02-14T07:17:18.141Z,98868.81
2024-02-14T07:19:44.767Z,98868.57
2024-02-14T07:22:11.423Z,98867.27
2024-02-14T07:24:38.172Z,98862.88
2024-02-14T07:27:05.574Z,98867.34
2024-02-14T07:29:32.517Z,98866.01
2024-02-14T07:32:03.000Z,98866.94
2024-02-14T07:34:29.808Z,98864.14
2024-02-14T07:36:56.603Z,98863.55
2024-02-14T07:39:23.287Z,98864.61
2024-02-14T07:41:50.041Z,98863.09
2024-02-14T07:44:16.775Z,98862.15
2024-02-14T07:46:43.626Z,98862.82
2024-02-14T07:49:10.389Z,98864.64
2024-02-14T07:51:37.640Z,98864.61
2024-02-14T07:54:08.002Z,98858.14
2024-02-14T07:56:34.828Z,98860.64
2024-02-14T07:59:01.645Z,98858.64
2024-02-14T08:01:28.389Z,98862.30
2024-02-14T08:03:55.797Z,98859.96
2024-02-14T08:06:22.738Z,98861.88
2024-02-14T08:08:49.453Z,98858.27
2024-02-14T08:11:16.488Z,98860.66
2024-02-14T08:13:43.257Z,98862.08
2024-02-14T08:16:09.988Z,98859.70
2024-02-14T08:18:36.761Z,98865.98
2024-02-14T08:21:04.012Z,98865.52
2024-02-14T08:23:30.890Z,98872.04
2024-02-14T08:25:57.577Z,98867.54
2024-02-14T08:28:24.641Z,98867.39
2024-02-14T08:30:51.280Z,98868.96
2024-02-14T08:33:18.192Z,98868.14
2024-02-14T08:35:45.049Z,98873.12
2024-02-14T08:38:12.131Z,98868.46
2024-02-14T08:40:38.935Z,98870.42
2024-02-14T08:43:06.006Z,98873.15
2024-02-14T08:45:33.204Z,98877.34
2024-02-14T08:48:00.565Z,98877.14
2024-02-14T08:50:28.041Z,98880.16
2024-02-14T08:52:54.764Z,98877.46
2024-02-14T08:55:21.403Z,98880.93
2024-02-14T08:57:48.138Z,98882.30
2024-02-14T09:00:15.442Z,98883.46
2024-02-14T09:02:42.164Z,98886.38
2024-02-14T09:05:09.296Z,98885.82
2024-02-14T09:07:35.941Z,98880.45
2024-02-14T09:10:02.682Z,98877.73
2024-02-14T09:12:29.427Z,98871.75
2024-02-14T09:14:56.209Z,98874.45
2024-02-14T09:17:23.021Z,98867.44
2024-02-14T09:19:49.866Z,98866.88
2024-02-14T09:22:16.710Z,98867.65
2024-02-14T09:24:43.570Z,98865.66
2024-02-14T09:27:11.650Z,98867.46
2024-02-14T09:29:45.604Z,98860.52
2024-02-14T09:32:12.501Z,98862.27
2024-02-14T09:34:39.247Z,98859.50
2024-02-14T09:37:06.082Z,98859.23
2024-02-14T09:39:32.751Z,98860.67
2024-02-14T09:42:00.718Z,98857.52
2024-02-14T09:44:29.529Z,98856.92
2024-02-14T09:46:57.811Z,98855.70
2024-02-14T09:49:25.864Z,98860.05
2024-02-14T09:51:53.746Z,98861.92
2024-02-14T09:54:21.170Z,98857.49
2024-02-14T09:56:54.473Z,98863.05
2024-02-14T09:59:23.607Z,98868.38
2024-02-14T10:01:50.342Z,98863.83
2024-02-14T10:04:17.230Z,98855.70
2024-02-14T10:06:44.094Z,98856.65
2024-02-14T10:09:11.020Z,98860.17
2024-02-14T10:11:39.098Z,98854.10
2024-02-14T10:14:06.539Z,98851.20
2024-02-14T10:16:33.291Z,98853.20
2024-02-14T10:19:00.621Z,98853.11
2024-02-14T10:21:27.782Z,98850.48
2024-02-14T10:23:54.748Z,98849.45
2024-02-14T10:26:21.882Z,98846.83
2024-02-14T10:28:50.424Z,98841.52
2024-02-14T10:31:17.931Z,98835.23
2024-02-14T10:33:45.026Z,98836.48
2024-02-14T10:36:14.218Z,98837.48
2024-02-14T10:38:41.895Z,98834.27
2024-02-14T10:41:11.043Z,98831.02
2024-02-14T10:43:41.404Z,98829.61
2024-02-14T10:46:13.819Z,98826.39
2024-02-14T10:48:41.178Z,98826.60
2024-02-14T10:51:09.996Z,98822.29
2024-02-14T10:53:40.722Z,98815.73
2024-02-14T10:56:08.637Z,98812.09
2024-02-14T10:58:36.296Z,98806.80
2024-02-14T11:01:03.732Z,98805.85
2024-02-14T11:03:30.798Z,98809.41
2024-02-14T11:06:03.685Z,98804.73
2024-02-14T11:08:31.762Z,98804.75
2024-02-14T11:11:01.312Z,98805.50
2024-02-14T11:13:29.819Z,98806.44
2024-02-14T11:15:58.510Z,98801.15
2024-02-14T11:18:29.946Z,98806.19
2024-02-14T11:20:57.072Z,98804.27
2024-02-14T11:23:24.430Z,98801.17
2024-02-14T11:25:51.376Z,98799.07
2024-02-14T11:28:20.585Z,98796.90
2024-02-14T11:30:47.541Z,98794.58
2024-02-14T11:33:15.170Z,98796.73
2024-02-14T11:35:43.303Z,98794.56
2024-02-14T11:38:11.117Z,98796.39
2024-02-14T11:40:38.721Z,98790.48
2024-02-14T11:43:06.299Z,98786.90
2024-02-14T11:45:33.328Z,98781.20
2024-02-14T11:48:00.320Z,98777.80
2024-02-14T11:50:27.232Z,98778.95
2024-02-14T11:52:54.087Z,98777.31
2024-02-14T11:55:29.260Z,98774.84
2024-02-14T11:57:55.970Z,98774.38
2024-02-14T12:00:23.021Z,98774.48
2024-02-14T12:02:50.262Z,98770.42
2024-02-14T12:05:18.380Z,98766.09
2024-02-14T12:07:45.567Z,98765.39
2024-02-14T12:10:12.577Z,98763.38
2024-02-14T12:12:39.650Z,98762.58
2024-02-14T12:15:06.974Z,98761.35
2024-02-14T12:17:35.840Z,98762.42
2024-02-14T12:20:13.053Z,98759.40
2024-02-14T12:22:40.005Z,98763.33
2024-02-14T12:25:08.958Z,98761.38
2024-02-14T12:27:35.754Z,98759.66
2024-02-14T12:30:09.289Z,98761.25
2024-02-14T12:32:36.411Z,98754.90
2024-02-14T12:35:03.386Z,98753.70
2024-02-14T12:37:30.097Z,98750.05
2024-02-14T12:39:56.756Z,98748.39
2024-02-14T12:42:23.511Z,98749.89
2024-02-14T12:44:50.477Z,98743.04
2024-02-14T12:47:17.412Z,98743.28
2024-02-14T12:49:44.236Z,98742.21
2024-02-14T12:52:11.711Z,98740.27
2024-02-14T12:54:38.449Z,98741.20
2024-02-14T12:57:05.636Z,98743.50
2024-02-14T12:59:32.631Z,98745.73
2024-02-14T13:01:59.454Z,98745.02
2024-02-14T13:04:26.397Z,98744.16
2024-02-14T13:06:53.254Z,98746.12
2024-02-14T13:09:20.248Z,98742.77
2024-02-14T13:11:47.032Z,98746.01
2024-02-14T13:14:13.958Z,98744.79
2024-02-14T13:16:41.044Z,98742.13
2024-02-14T13:19:07.992Z,98741.70
2024-02-14T13:21:34.981Z,98740.95
2024-02-14T13:24:01.884Z,98736.27
2024-02-14T13:26:28.686Z,98736.67
2024-02-14T13:28:55.493Z,98736.74
2024-02-14T13:31:22.284Z,98734.85
2024-02-14T13:33:49.232Z,98737.70
2024-02-14T13:36:16.283Z,98733.57
2024-02-14T13:38:43.160Z,98732.92
2024-02-14T13:41:09.729Z,98734.70
2024-02-14T13:43:36.421Z,98737.38
2024-02-14T13:46:03.234Z,98734.96
2024-02-14T13:48:30.069Z,98740.36
2024-02-14T13:50:57.003Z,98733.85
2024-02-14T13:53:23.715Z,98735.20
2024-02-14T13:55:51.122Z,98734.26
2024-02-14T13:58:17.738Z,98734.84
2024-02-14T14:00:44.561Z,98736.26
2024-02-14T14:03:11.456Z,98733.92
2024-02-14T14:05:38.655Z,98734.02
2024-02-14T14:08:06.051Z,98732.45
2024-02-14T14:10:32.729Z,98731.22
2024-02-14T14:12:59.441Z,98731.96
2024-02-14T14:15:26.119Z,98731.34
2024-02-14T14:17:53.358Z,98728.50
2024-02-14T14:20:21.106Z,98729.91
2024-02-14T14:22:48.250Z,98732.99
2024-02-14T14:25:15.265Z,98738.10
2024-02-14T14:27:42.166Z,98735.95
2024-02-14T14:30:09.471Z,98734.44
2024-02-14T14:32:36.469Z,98731.23
2024-02-14T14:35:03.567Z,98730.31
2024-02-14T14:37:30.391Z,98730.73
2024-02-14T14:39:57.048Z,98730.27
2024-02-14T14:42:23.803Z,98728.28
2024-02-14T14:44:51.349Z,98727.59
2024-02-14T14:47:18.126Z,98724.39
2024-02-14T14:49:44.883Z,98728.08
2024-02-14T14:52:11.621Z,98722.38
2024-02-14T14:54:38.513Z,98723.56
2024-02-14T14:57:05.714Z,98720.17
2024-02-14T14:59:32.656Z,98719.93
2024-02-14T15:01:59.567Z,98719.32
2024-02-14T15:04:26.467Z,98720.21
2024-02-14T15:06:53.408Z,98725.56
2024-02-14T15:09:20.279Z,98727.20
2024-02-14T15:11:47.551Z,98731.30
2024-02-14T15:14:14.236Z,98733.35
2024-02-14T15:16:40.937Z,98737.52
2024-02-14T15:19:07.849Z,98741.39
2024-02-14T15:21:34.666Z,98743.86
2024-02-14T15:24:01.501Z,98745.70
2024-02-14T15:26:28.325Z,98745.41
2024-02-14T15:28:54.963Z,98743.89
2024-02-14T15:31:21.823Z,98749.28
2024-02-14T15:33:48.752Z,98748.35
2024-02-14T15:36:15.575Z,98747.65
2024-02-14T15:38:42.541Z,98749.98
2024-02-14T15:41:09.119Z,98749.30
2024-02-14T15:43:36.662Z,98746.70
2024-02-14T15:46:03.839Z,98748.50
2024-02-14T15:48:30.663Z,98744.66
2024-02-14T15:50:57.568Z,98749.69
2024-02-14T15:53:24.280Z,98750.45
2024-02-14T15:55:51.100Z,98750.50
2024-02-14T15:58:17.721Z,98751.34
2024-02-14T16:00:44.527Z,98752.32
2024-02-14T16:03:11.541Z,98756.39
2024-02-14T16:05:38.760Z,98757.36
2024-02-14T16:08:06.460Z,98756.52
2024-02-14T16:10:33.159Z,98755.48
2024-02-14T16:12:59.913Z,98757.42
2024-02-14T16:15:39.247Z,98759.97
2024-02-14T16:18:06.578Z,98767.75
2024-02-14T16:20:33.510Z,98766.92
2024-02-14T16:23:00.428Z,98767.46
2024-02-14T16:25:27.148Z,98766.91
2024-02-14T16:27:53.788Z,98769.51
2024-02-14T16:30:20.621Z,98768.41
2024-02-14T16:32:47.608Z,98770.00
2024-02-14T16:35:14.593Z,98771.91
2024-02-14T16:37:41.406Z,98774.18
2024-02-14T16:40:08.947Z,98774.71
2024-02-14T16:42:35.799Z,98779.98
2024-02-14T16:45:02.823Z,98782.32
2024-02-14T16:47:29.663Z,98782.73
2024-02-14T16:49:56.482Z,98777.56
2024-02-14T16:52:23.344Z,98783.58
2024-02-14T16:54:50.086Z,98785.35
2024-02-14T16:57:18.727Z,98789.20
2024-02-14T16:59:47.624Z,98790.36
2024-02-14T17:02:14.534Z,98794.09
2024-02-14T17:04:41.455Z,98797.56
2024-02-14T17:07:10.793Z,98799.88
2024-02-14T17:09:38.547Z,98802.64
2024-02-14T17:12:06.511Z,98802.75
2024-02-14T17:14:34.634Z,98806.67
2024-02-14T17:17:01.777Z,98806.54
2024-02-14T17:19:28.784Z,98805.44
2024-02-14T17:21:55.659Z,98811.23
2024-02-14T17:24:22.877Z,98815.83
2024-02-14T17:26:49.796Z,98817.73
2024-02-14T17:29:16.593Z,98819.23
2024-02-14T17:31:43.234Z,98819.08
2024-02-14T17:34:10.032Z,98822.19
2024-02-14T17:36:37.104Z,98830.91
2024-02-14T17:39:04.010Z,98831.33
2024-02-14T17:41:30.763Z,98833.00
2024-02-14T17:43:57.705Z,98830.50
2024-02-14T17:46:24.634Z,98827.79
2024-02-14T17:48:51.571Z,98823.34
2024-02-14T17:51:18.471Z,98825.98
2024-02-14T17:53:45.582Z,98821.84
2024-02-14T17:56:12.356Z,98822.52
2024-02-14T17:58:39.104Z,98825.67
2024-02-14T18:01:05.925Z,98825.77
2024-02-14T18:03:32.764Z,98823.82
2024-02-14T18:05:59.625Z,98831.56
2024-02-14T18:08:26.867Z,98832.27
2024-02-14T18:10:53.775Z,98832.70
2024-02-14T18:13:20.966Z,98828.36
2024-02-14T18:15:47.714Z,98827.02
2024-02-14T18:18:14.822Z,98825.16
2024-02-14T18:20:41.773Z,98821.88
2024-02-14T18:23:08.721Z,98824.23
2024-02-14T18:25:35.612Z,98821.30
2024-02-14T18:28:02.347Z,98824.60
2024-02-14T18:30:28.967Z,98828.04
2024-02-14T18:32:55.867Z,98825.82
2024-02-14T18:35:22.678Z,98826.02
2024-02-14T18:37:49.492Z,98829.91
2024-02-14T18:40:16.306Z,98837.61
2024-02-14T18:42:43.031Z,98834.55
2024-02-14T18:45:10.160Z,98839.15
2024-02-14T18:47:37.454Z,98846.00
2024-02-14T18:50:05.250Z,98848.02
2024-02-14T18:52:31.953Z,98844.41
2024-02-14T18:54:58.810Z,98845.61
2024-02-14T18:57:25.619Z,98848.16
2024-02-14T18:59:52.431Z,98851.11
2024-02-14T19:02:19.140Z,98845.70
2024-02-14T19:04:45.940Z,98847.96
2024-02-14T19:07:12.730Z,98849.04
2024-02-14T19:09:39.375Z,98851.50
2024-02-14T19:12:06.739Z,98849.84
2024-02-14T19:14:33.470Z,98848.19
2024-02-14T19:17:00.214Z,98850.63
2024-02-14T19:19:27.046Z,98849.00
2024-02-14T19:21:53.916Z,98854.34
2024-02-14T19:24:20.688Z,98853.55
2024-02-14T19:26:47.427Z,98855.11
2024-02-14T19:29:14.144Z,98850.20
2024-02-14T19:31:41.001Z,98850.41
2024-02-14T19:34:07.777Z,98848.71
2024-02-14T19:36:34.581Z,98844.46
2024-02-14T19:39:01.247Z,98843.30
2024-02-14T19:41:27.867Z,98841.62
2024-02-14T19:43:54.620Z,98842.84
2024-02-14T19:46:21.263Z,98841.85
2024-02-14T19:48:48.338Z,98846.83
2024-02-14T19:51:15.232Z,98842.42
2024-02-14T19:53:42.120Z,98844.65
2024-02-14T19:56:09.055Z,98842.29
2024-02-14T19:58:35.691Z,98844.52
2024-02-14T20:01:02.479Z,98847.27
2024-02-14T20:03:29.184Z,98851.38
2024-02-14T20:05:55.875Z,98851.91
2024-02-14T20:08:22.711Z,98855.48
2024-02-14T20:10:49.425Z,98857.38
2024-02-14T20:13:16.152Z,98854.65
2024-02-14T20:15:42.924Z,98859.09
2024-02-14T20:18:12.088Z,98858.75
2024-02-14T20:20:41.317Z,98859.77
2024-02-14T20:23:08.164Z,98858.91
2024-02-14T20:25:35.049Z,98863.34
2024-02-14T20:28:01.749Z,98863.85
2024-02-14T20:30:28.499Z,98864.16
2024-02-14T20:32:56.146Z,98861.25
2024-02-14T20:35:22.984Z,98858.14
2024-02-14T20:37:49.962Z,98860.89
2024-02-14T20:40:16.828Z,98854.39
2024-02-14T20:42:44.291Z,98851.80
2024-02-14T20:45:11.247Z,98853.65
2024-02-14T20:47:39.296Z,98854.48
2024-02-14T20:50:07.186Z,98860.43
2024-02-14T20:52:35.033Z,98861.41
2024-02-14T20:55:01.921Z,98859.35
2024-02-14T20:57:28.685Z,98869.04
2024-02-14T20:59:55.484Z,98866.13
2024-02-14T21:02:22.443Z,98862.87
2024-02-14T21:04:49.243Z,98861.10
2024-02-14T21:07:16.201Z,98858.02
2024-02-14T21:09:43.909Z,98852.71
2024-02-14T21:12:10.984Z,98855.75
2024-02-14T21:14:38.655Z,98854.88
2024-02-14T21:17:05.784Z,98854.02
2024-02-14T21:19:32.807Z,98852.95
2024-02-14T21:22:00.098Z,98852.95
2024-02-14T21:24:26.839Z,98856.35
2024-02-14T21:26:53.680Z,98858.71
2024-02-14T21:29:20.531Z,98863.69
2024-02-14T21:31:47.380Z,98862.52
2024-02-14T21:34:14.421Z,98859.88
2024-02-14T21:36:41.388Z,98861.79
2024-02-14T21:39:08.191Z,98860.25
2024-02-14T21:41:35.095Z,98860.40
2024-02-14T21:44:02.028Z,98856.13
2024-02-14T21:46:29.190Z,98853.91
2024-02-14T21:48:59.356Z,98854.38
2024-02-14T21:51:26.457Z,98856.39
2024-02-14T21:53:53.343Z,98853.79
2024-02-14T21:56:20.157Z,98852.66
2024-02-14T21:58:47.531Z,98850.77
2024-02-14T22:01:14.333Z,98854.55
2024-02-14T22:03:41.110Z,98852.81
2024-02-14T22:06:08.053Z,98854.70
2024-02-14T22:08:35.148Z,98856.56
2024-02-14T22:11:02.160Z,98857.92
2024-02-14T22:13:28.905Z,98857.58
2024-02-14T22:15:55.843Z,98858.27
2024-02-14T22:18:22.868Z,98857.26
2024-02-14T22:20:49.734Z,98856.06
2024-02-14T22:23:16.607Z,98853.33
2024-02-14T22:25:43.467Z,98852.51
2024-02-14T22:28:10.287Z,98853.56
2024-02-14T22:30:37.148Z,98853.59
2024-02-14T22:33:05.087Z,98853.23
2024-02-14T22:35:31.888Z,98860.39
2024-02-14T22:37:58.750Z,98858.98
2024-02-14T22:40:25.567Z,98853.65
2024-02-14T22:42:52.317Z,98858.63
2024-02-14T22:45:19.072Z,98855.56
2024-02-14T22:47:45.775Z,98854.34
2024-02-14T22:50:12.843Z,98853.67
2024-02-14T22:52:39.540Z,98851.25
2024-02-14T22:55:06.667Z,98850.89
2024-02-14T22:57:33.408Z,98852.77
2024-02-14T23:00:00.066Z,98852.59
2024-02-14T23:02:26.844Z,98847.61
2024-02-14T23:04:53.649Z,98849.48
2024-02-14T23:07:20.421Z,98850.19
2024-02-14T23:09:47.559Z,98847.23
2024-02-14T23:12:14.559Z,98846.31
2024-02-14T23:14:41.575Z,98849.70
2024-02-14T23:17:08.348Z,98848.31
2024-02-14T23:19:35.099Z,98848.98
2024-02-14T23:22:02.104Z,98848.40
2024-02-14T23:24:28.949Z,98846.63
2024-02-14T23:26:55.750Z,98849.81
2024-02-14T23:29:22.754Z,98854.70
2024-02-14T23:31:49.492Z,98857.42
2024-02-14T23:34:16.234Z,98852.77
2024-02-14T23:36:43.186Z,98852.55
2024-02-14T23:39:09.954Z,98854.33
2024-02-14T23:41:36.728Z,98849.48
2024-02-14T23:44:03.634Z,98849.81
2024-02-14T23:46:30.841Z,98849.42
2024-02-14T23:48:57.649Z,98849.42
2024-02-14T23:51:24.484Z,98852.48
2024-02-14T23:53:51.279Z,98849.90
2024-02-14T23:56:17.987Z,98848.31
2024-02-14T23:58:44.958Z,98846.63
